createdAt,value
2023-03-31T00:01:13.492Z,99614.31
2023-03-31T00:06:20.845Z,99615.06
2023-03-31T00:11:29.390Z,99610.84
2023-03-31T00:16:37.319Z,99612.47
2023-03-31T00:21:44.230Z,99611.63
2023-03-31T00:26:52.278Z,99610.59
2023-03-31T00:32:00.205Z,99605.63
2023-03-31T00:37:07.147Z,99612.47
2023-03-31T00:42:15.354Z,99609.81
2023-03-31T00:47:23.438Z,99604.66
2023-03-31T00:52:38.050Z,99612.47
2023-03-31T00:57:47.327Z,99608.25
2023-03-31T01:02:56.480Z,99612.47
2023-03-31T01:08:04.060Z,99609.19
2023-03-31T01:13:15.230Z,99603.03
2023-03-31T01:18:22.570Z,99604.75
2023-03-31T01:24:27.954Z,99606.56
2023-03-31T01:30:10.572Z,99603.03
2023-03-31T01:36:12.898Z,99601.22
2023-03-31T01:41:51.136Z,99598.66
2023-03-31T01:47:03.905Z,99593.41
2023-03-31T01:52:19.432Z,99603.88
2023-03-31T01:57:34.795Z,99605.72
2023-03-31T02:02:48.089Z,99611.78
2023-03-31T02:08:00.369Z,99602.13
2023-03-31T02:13:09.227Z,99610.88
2023-03-31T02:18:19.799Z,99605.88
2023-03-31T02:23:30.126Z,99612.81
2023-03-31T02:28:39.167Z,99612.03
2023-03-31T02:33:45.760Z,99615.38
2023-03-31T02:38:58.588Z,99613.66
2023-03-31T02:44:08.949Z,99609.28
2023-03-31T02:49:17.476Z,99607.63
2023-03-31T02:54:55.484Z,99612.09
2023-03-31T03:00:16.893Z,99613.97
2023-03-31T03:05:38.040Z,99614.22
2023-03-31T03:11:18.392Z,99614.41
2023-03-31T03:16:28.763Z,99619.00
2023-03-31T03:21:35.755Z,99619.09
2023-03-31T03:26:42.161Z,99623.63
2023-03-31T03:31:50.140Z,99631.47
2023-03-31T03:36:56.554Z,99634.22
2023-03-31T03:42:02.984Z,99638.72
2023-03-31T03:47:11.049Z,99639.72
2023-03-31T03:52:17.664Z,99643.28
2023-03-31T03:57:24.107Z,99633.75
2023-03-31T04:02:31.940Z,99636.34
2023-03-31T04:07:38.330Z,99640.75
2023-03-31T04:12:44.890Z,99637.28
2023-03-31T04:17:55.061Z,99629.53
2023-03-31T04:23:02.960Z,99617.34
2023-03-31T04:28:10.882Z,99625.31
2023-03-31T04:33:19.446Z,99617.69
2023-03-31T04:38:33.974Z,99612.41
2023-03-31T04:43:41.541Z,99611.56
2023-03-31T04:48:49.791Z,99618.44
2023-03-31T04:53:56.184Z,99609.66
2023-03-31T04:59:04.194Z,99606.94
2023-03-31T05:04:12.329Z,99606.03
2023-03-31T05:09:19.223Z,99609.41
2023-03-31T05:14:25.967Z,99597.22
2023-03-31T05:19:34.008Z,99594.47
2023-03-31T05:24:40.427Z,99594.53
2023-03-31T05:29:46.905Z,99600.47
2023-03-31T05:34:59.007Z,99598.66
2023-03-31T05:40:11.563Z,99591.69
2023-03-31T05:45:19.183Z,99589.78
2023-03-31T05:50:27.508Z,99591.44
2023-03-31T05:55:34.158Z,99599.84
2023-03-31T06:00:40.902Z,99584.22
2023-03-31T06:05:54.314Z,99582.25
2023-03-31T06:11:00.725Z,99590.81
2023-03-31T06:16:09.090Z,99578.69
2023-03-31T06:21:19.586Z,99582.03
2023-03-31T06:26:26.284Z,99583.50
2023-03-31T06:31:33.928Z,99579.72
2023-03-31T06:36:42.329Z,99576.03
2023-03-31T06:41:48.621Z,99562.75
2023-03-31T06:47:04.285Z,99559.19
2023-03-31T06:52:12.609Z,99560.66
2023-03-31T06:57:19.095Z,99568.09
2023-03-31T07:02:25.731Z,99560.03
2023-03-31T07:07:35.910Z,99564.09
2023-03-31T07:12:42.288Z,99566.50
2023-03-31T07:17:51.466Z,99565.47
2023-03-31T07:22:59.851Z,99568.72
2023-03-31T07:28:08.342Z,99558.97
2023-03-31T07:33:14.715Z,99559.59
2023-03-31T07:38:22.880Z,99556.03
2023-03-31T07:43:29.490Z,99557.38
2023-03-31T07:48:36.194Z,99556.31
2023-03-31T07:53:44.288Z,99556.97
2023-03-31T07:58:51.842Z,99546.34
2023-03-31T08:03:59.497Z,99546.94
2023-03-31T08:09:08.802Z,99537.03
2023-03-31T08:14:15.030Z,99522.75
2023-03-31T08:19:21.484Z,99525.28
2023-03-31T08:24:29.383Z,99524.91
2023-03-31T08:29:35.775Z,99516.56
2023-03-31T08:34:43.137Z,99515.19
2023-03-31T08:39:51.092Z,99505.66
2023-03-31T08:45:04.529Z,99503.75
2023-03-31T08:50:18.808Z,99497.44
2023-03-31T08:55:33.412Z,99493.66
2023-03-31T09:00:48.736Z,99497.91
2023-03-31T09:06:02.846Z,99489.78
2023-03-31T09:11:23.267Z,99483.19
2023-03-31T09:16:37.571Z,99470.97
2023-03-31T09:21:47.513Z,99463.44
2023-03-31T09:26:58.497Z,99463.09
2023-03-31T09:32:15.687Z,99458.28
2023-03-31T09:37:23.413Z,99456.56
2023-03-31T09:42:33.846Z,99450.34
2023-03-31T09:47:44.862Z,99448.13
2023-03-31T09:52:54.793Z,99442.28
2023-03-31T09:58:08.106Z,99435.72
2023-03-31T10:03:16.416Z,99431.00
2023-03-31T10:08:29.761Z,99422.38
2023-03-31T10:13:48.705Z,99423.16
2023-03-31T10:18:54.748Z,99429.47
2023-03-31T10:24:02.992Z,99416.69
2023-03-31T10:29:18.536Z,99420.91
2023-03-31T10:34:27.050Z,99404.97
2023-03-31T10:39:34.775Z,99400.25
2023-03-31T10:44:42.804Z,99394.88
2023-03-31T10:49:58.170Z,99386.84
2023-03-31T10:55:05.371Z,99386.44
2023-03-31T11:00:26.010Z,99382.13
2023-03-31T11:05:40.874Z,99385.94
2023-03-31T11:11:22.876Z,99376.75
2023-03-31T11:16:41.033Z,99367.78
2023-03-31T11:22:03.464Z,99362.53
2023-03-31T11:27:37.081Z,99353.16
2023-03-31T11:32:57.950Z,99345.03
2023-03-31T11:38:28.171Z,99334.25
2023-03-31T11:43:42.523Z,99328.53
2023-03-31T11:48:59.593Z,99328.69
2023-03-31T11:54:12.585Z,99327.69
2023-03-31T11:59:22.231Z,99319.91
2023-03-31T12:04:38.633Z,99309.69
2023-03-31T12:09:56.241Z,99300.84
2023-03-31T12:15:14.983Z,99308.34
2023-03-31T12:20:32.932Z,99303.47
2023-03-31T12:25:50.016Z,99304.13
2023-03-31T12:30:58.424Z,99290.00
2023-03-31T12:36:30.745Z,99288.38
2023-03-31T12:41:46.673Z,99270.50
2023-03-31T12:47:42.297Z,99262.81
2023-03-31T12:53:00.648Z,99249.69
2023-03-31T12:58:49.495Z,99244.19
2023-03-31T13:04:18.246Z,99233.88
2023-03-31T13:09:53.342Z,99221.50
2023-03-31T13:15:00.874Z,99223.63
2023-03-31T13:20:36.316Z,99224.28
2023-03-31T13:25:52.261Z,99225.53
2023-03-31T13:31:02.785Z,99217.31
2023-03-31T13:36:57.258Z,99219.44
2023-03-31T13:42:24.983Z,99218.03
2023-03-31T13:48:06.651Z,99194.88
2023-03-31T13:53:34.726Z,99194.69
2023-03-31T13:59:42.310Z,99176.94
2023-03-31T14:05:24.457Z,99168.72
2023-03-31T14:10:35.055Z,99169.41
2023-03-31T14:15:48.156Z,99162.25
2023-03-31T14:21:18.377Z,99149.69
2023-03-31T14:26:47.455Z,99149.22
2023-03-31T14:32:07.514Z,99136.06
2023-03-31T14:37:18.104Z,99137.09
2023-03-31T14:42:48.734Z,99126.91
2023-03-31T14:48:05.051Z,99121.84
2023-03-31T14:53:17.732Z,99121.22
2023-03-31T14:58:29.700Z,99113.63
2023-03-31T15:03:44.498Z,99104.06
2023-03-31T15:08:51.915Z,99084.78
2023-03-31T15:14:04.998Z,99080.88
2023-03-31T15:19:18.568Z,99078.84
2023-03-31T15:24:27.042Z,99069.44
2023-03-31T15:29:39.717Z,99069.22
2023-03-31T15:34:51.780Z,99059.00
2023-03-31T15:40:00.901Z,99060.91
2023-03-31T15:45:39.310Z,99048.28
2023-03-31T15:50:48.042Z,99035.53
2023-03-31T15:56:00.194Z,99045.75
2023-03-31T16:01:08.179Z,99047.28
2023-03-31T16:06:26.010Z,99041.41
2023-03-31T16:11:42.861Z,99044.94
2023-03-31T16:16:54.212Z,99042.44
2023-03-31T16:22:05.115Z,99041.97
2023-03-31T16:27:11.742Z,99039.16
2023-03-31T16:32:21.038Z,99035.63
2023-03-31T16:37:29.854Z,99029.53
2023-03-31T16:42:36.663Z,99031.94
2023-03-31T16:47:45.601Z,99029.09
2023-03-31T16:52:54.650Z,99040.34
2023-03-31T16:58:03.550Z,99041.53
2023-03-31T17:03:12.703Z,99087.72
2023-03-31T17:08:24.076Z,99095.13
2023-03-31T17:13:32.945Z,99085.06
2023-03-31T17:18:40.463Z,99079.97
2023-03-31T17:23:50.044Z,99074.75
2023-03-31T17:28:57.445Z,99060.53
2023-03-31T17:34:05.218Z,99052.22
2023-03-31T17:39:14.820Z,99049.78
2023-03-31T17:44:24.201Z,99060.53
2023-03-31T17:49:33.341Z,99068.19
2023-03-31T17:54:42.739Z,99062.69
2023-03-31T18:01:30.753Z,99068.13
2023-03-31T18:06:39.667Z,99064.63
2023-03-31T18:11:49.600Z,99063.00
2023-03-31T18:16:59.854Z,99058.22
2023-03-31T18:22:08.939Z,99054.22
2023-03-31T18:27:19.064Z,99049.66
2023-03-31T18:32:29.330Z,99044.31
2023-03-31T18:37:38.266Z,99046.16
2023-03-31T18:42:51.073Z,99037.84
2023-03-31T18:48:03.530Z,99038.03
2023-03-31T18:53:15.768Z,99030.50
2023-03-31T18:58:29.856Z,99025.34
2023-03-31T19:03:41.190Z,99016.63
2023-03-31T19:08:50.385Z,98997.38
2023-03-31T19:14:01.201Z,98989.19
2023-03-31T19:19:16.294Z,98986.69
2023-03-31T19:24:37.758Z,98982.44
2023-03-31T19:30:03.070Z,98975.56
2023-03-31T19:35:17.378Z,98972.03
2023-03-31T19:40:36.215Z,98973.50
2023-03-31T19:45:46.081Z,98965.59
2023-03-31T19:51:01.495Z,98965.69
2023-03-31T19:56:19.731Z,98949.50
2023-03-31T20:01:31.419Z,98940.06
2023-03-31T20:06:47.020Z,98931.88
2023-03-31T20:11:59.762Z,98928.38
2023-03-31T20:17:09.438Z,98928.38
2023-03-31T20:22:22.568Z,98941.28
2023-03-31T20:27:31.388Z,98929.16
2023-03-31T20:32:41.332Z,98933.00
2023-03-31T20:37:52.535Z,98921.97
2023-03-31T20:42:59.766Z,98926.41
2023-03-31T20:48:08.448Z,98919.28
2023-03-31T20:53:17.305Z,98909.69
2023-03-31T20:58:24.765Z,98911.69
2023-03-31T21:03:32.950Z,98903.88
2023-03-31T21:08:42.910Z,98898.72
2023-03-31T21:13:49.653Z,98893.75
2023-03-31T21:18:59.397Z,98898.94
2023-03-31T21:24:10.524Z,98896.25
2023-03-31T21:29:19.581Z,98893.66
2023-03-31T21:34:31.927Z,98896.50
2023-03-31T21:39:42.766Z,98894.81
2023-03-31T21:44:50.970Z,98893.97
2023-03-31T21:49:57.841Z,98897.34
2023-03-31T21:55:06.755Z,98886.06
2023-03-31T22:00:16.144Z,98887.75
2023-03-31T22:05:22.974Z,98889.66
2023-03-31T22:10:31.318Z,98879.25
2023-03-31T22:15:41.913Z,98883.63
2023-03-31T22:20:48.953Z,98875.88
2023-03-31T22:25:57.594Z,98880.16
2023-03-31T22:31:04.955Z,98880.25
2023-03-31T22:36:12.669Z,98883.69
2023-03-31T22:41:20.888Z,98876.78
2023-03-31T22:46:27.888Z,98875.09
2023-03-31T22:51:35.353Z,98864.84
2023-03-31T22:56:43.656Z,98863.06
2023-03-31T23:01:54.280Z,98854.50
2023-03-31T23:07:01.212Z,98859.84
2023-03-31T23:12:09.258Z,98858.19
2023-03-31T23:17:15.626Z,98853.13
2023-03-31T23:22:22.269Z,98847.13
2023-03-31T23:27:30.460Z,98840.31
2023-03-31T23:32:37.056Z,98844.75
2023-03-31T23:37:43.492Z,98849.97
2023-03-31T23:42:51.535Z,98846.53
2023-03-31T23:47:57.946Z,98844.16
2023-03-31T23:53:04.262Z,98843.44
2023-03-31T23:58:12.195Z,98846.19
